Time;durP1;ratioP1;P1;durP2;ratioP2;P2;SDS_P1;SDS_P2;PMS_P1;PMS_P2;Temp;Humidity;BMP_temperature;BMP_pressure;BME280_temperature;BME280_humidity;BME280_pressure;Samples;Min_cycle;Max_cycle;Signal;HPM_P1;HPM_P2
2023/09/04 00:00:58;;;;;;;5.60;4.17;;;25.90;52.00;;;;;;5019270;28;20442;-79
2023/09/04 00:03:29;;;;;;;4.53;4.23;;;25.90;52.10;;;;;;5019049;28;20424;-80
2023/09/04 00:05:57;;;;;;;3.73;3.53;;;25.80;52.00;;;;;;5018994;28;20415;-80
2023/09/04 00:08:25;;;;;;;3.63;3.43;;;25.80;52.00;;;;;;5019732;28;20823;-80
2023/09/04 00:10:56;;;;;;;4.20;3.90;;;25.80;52.10;;;;;;5019523;28;20426;-80
2023/09/04 00:13:24;;;;;;;4.57;4.17;;;25.80;52.20;;;;;;5018807;28;20432;-79
2023/09/04 00:15:56;;;;;;;4.60;4.20;;;25.80;52.10;;;;;;5018388;28;20475;-79
2023/09/04 00:18:24;;;;;;;4.20;3.90;;;25.70;52.10;;;;;;5018084;28;20900;-79
2023/09/04 00:20:53;;;;;;;3.83;3.60;;;25.70;52.20;;;;;;5018014;28;20475;-80
2023/09/04 00:23:22;;;;;;;3.73;3.53;;;25.70;52.20;;;;;;5020331;28;20479;-80
2023/09/04 00:25:51;;;;;;;4.17;3.83;;;25.70;52.20;;;;;;5020444;28;20478;-80
2023/09/04 00:28:20;;;;;;;3.63;3.40;;;25.60;52.30;;;;;;5020136;28;20429;-79
2023/09/04 00:30:49;;;;;;;3.80;3.50;;;25.60;52.30;;;;;;5020260;28;20468;-80
2023/09/04 00:33:19;;;;;;;3.67;3.37;;;25.60;52.40;;;;;;5020678;28;20455;-80
2023/09/04 00:35:47;;;;;;;4.20;3.90;;;25.50;52.20;;;;;;5019492;28;20479;-80
2023/09/04 00:38:15;;;;;;;4.07;3.77;;;25.50;52.40;;;;;;5018518;28;20503;-80
2023/09/04 00:40:43;;;;;;;3.93;3.63;;;25.50;52.40;;;;;;5018493;28;20464;-80
2023/09/04 00:43:11;;;;;;;3.90;3.70;;;25.50;52.40;;;;;;5018988;28;20928;-80
2023/09/04 00:45:40;;;;;;;3.70;3.40;;;25.50;52.40;;;;;;5018565;28;20512;-78
2023/09/04 00:48:08;;;;;;;3.70;3.50;;;25.50;53.10;;;;;;5018604;28;20420;-80
2023/09/04 00:50:38;;;;;;;3.87;3.57;;;25.50;52.50;;;;;;5020447;28;20457;-81
2023/09/04 00:53:06;;;;;;;5.50;4.40;;;25.40;52.40;;;;;;5022959;28;20464;-80
2023/09/04 00:55:34;;;;;;;3.67;3.47;;;25.50;52.50;;;;;;5023058;28;20449;-80
2023/09/04 00:58:02;;;;;;;3.63;3.23;;;25.40;52.40;;;;;;5021514;28;20468;-80
2023/09/04 01:00:31;;;;;;;3.43;3.23;;;25.40;52.50;;;;;;5020392;28;20518;-79
2023/09/04 01:03:02;;;;;;;3.90;3.63;;;25.40;52.40;;;;;;5019363;28;20412;-80
2023/09/04 01:05:32;;;;;;;3.43;3.20;;;25.40;52.60;;;;;;5020271;28;20448;-80
2023/09/04 01:08:01;;;;;;;3.73;3.53;;;25.40;52.50;;;;;;5020230;28;20448;-79
2023/09/04 01:10:33;;;;;;;4.00;3.70;;;25.40;52.60;;;;;;5077451;22;20517;-79
2023/09/04 01:13:04;;;;;;;3.60;3.40;;;25.40;52.50;;;;;;5072203;28;20441;-80
2023/09/04 01:15:32;;;;;;;3.87;3.57;;;25.30;52.40;;;;;;5071896;28;20448;-80
2023/09/04 01:18:00;;;;;;;4.10;3.80;;;25.30;52.50;;;;;;5072526;28;21134;-77
2023/09/04 01:20:32;;;;;;;3.90;3.47;;;25.30;52.50;;;;;;5071440;28;20462;-76
2023/09/04 01:23:00;;;;;;;4.20;3.80;;;25.30;52.50;;;;;;5072053;28;20466;-77
2023/09/04 01:25:33;;;;;;;3.70;3.40;;;25.20;52.50;;;;;;5072130;28;20505;-76
2023/09/04 01:28:05;;;;;;;3.70;3.50;;;25.20;52.60;;;;;;5072157;28;20458;-76
2023/09/04 01:30:39;;;;;;;3.77;3.57;;;25.20;52.60;;;;;;5071764;28;20475;-78
2023/09/04 01:33:07;;;;;;;4.20;3.90;;;25.20;52.40;;;;;;5071088;28;20420;-78
2023/09/04 01:35:37;;;;;;;3.33;3.13;;;25.10;52.60;;;;;;5070895;28;20449;-79
2023/09/04 01:38:05;;;;;;;3.73;3.43;;;25.10;52.70;;;;;;5070641;28;20554;-78
2023/09/04 01:40:33;;;;;;;4.00;3.70;;;25.10;52.80;;;;;;5070563;28;20465;-77
2023/09/04 01:43:01;;;;;;;4.00;3.70;;;25.10;52.80;;;;;;5070885;28;20483;-78
2023/09/04 01:45:29;;;;;;;3.90;3.60;;;25.00;52.60;;;;;;5070888;28;20499;-77
2023/09/04 01:47:57;;;;;;;3.90;3.60;;;25.00;52.80;;;;;;5071000;28;20487;-78
2023/09/04 01:50:24;;;;;;;4.03;3.67;;;25.00;52.80;;;;;;5070640;28;20458;-79
2023/09/04 01:52:54;;;;;;;3.63;3.43;;;25.00;52.80;;;;;;5070519;28;20483;-79
2023/09/04 01:55:22;;;;;;;3.70;3.40;;;25.00;52.80;;;;;;5071916;28;20469;-79
2023/09/04 01:57:50;;;;;;;3.67;3.40;;;25.00;52.90;;;;;;5074770;28;20464;-79
2023/09/04 02:00:18;;;;;;;4.00;3.70;;;25.00;52.80;;;;;;5074940;28;20492;-78
2023/09/04 02:02:46;;;;;;;4.30;3.90;;;25.00;52.80;;;;;;5074566;28;20528;-79
2023/09/04 02:05:14;;;;;;;3.57;3.27;;;24.90;52.70;;;;;;5074804;28;20445;-78
2023/09/04 02:07:42;;;;;;;6.73;5.70;;;24.90;52.90;;;;;;5074412;28;20434;-78
2023/09/04 02:10:11;;;;;;;13.33;11.00;;;24.90;52.80;;;;;;5074295;28;20554;-79
2023/09/04 02:12:39;;;;;;;13.03;10.67;;;24.90;52.80;;;;;;5074747;28;20483;-79
2023/09/04 02:15:08;;;;;;;12.63;10.47;;;24.90;52.80;;;;;;5074570;28;20473;-78
2023/09/04 02:17:36;;;;;;;16.17;11.70;;;24.90;52.90;;;;;;5074906;28;20494;-79
2023/09/04 02:20:06;;;;;;;17.07;13.07;;;24.80;52.80;;;;;;5073740;28;20477;-77
2023/09/04 02:22:34;;;;;;;14.87;11.73;;;24.80;53.00;;;;;;5074625;28;20495;-79
2023/09/04 02:25:02;;;;;;;14.30;11.50;;;24.80;52.90;;;;;;5074182;28;20461;-80
2023/09/04 02:27:31;;;;;;;16.23;11.67;;;24.80;53.00;;;;;;5074192;28;20434;-77
2023/09/04 02:30:02;;;;;;;16.70;12.80;;;24.70;53.10;;;;;;5074002;28;20536;-77
2023/09/04 02:32:30;;;;;;;17.23;12.77;;;24.70;52.90;;;;;;5073907;28;20503;-79
2023/09/04 02:34:58;;;;;;;16.90;12.67;;;24.70;52.90;;;;;;5074295;28;20464;-79
2023/09/04 02:37:27;;;;;;;16.70;12.83;;;24.70;53.00;;;;;;5073884;28;20524;-78
2023/09/04 02:39:55;;;;;;;16.13;12.80;;;24.70;53.00;;;;;;5073693;28;20934;-78
2023/09/04 02:42:23;;;;;;;17.53;12.97;;;24.60;53.30;;;;;;5073813;28;20509;-79
2023/09/04 02:44:52;;;;;;;15.13;11.77;;;24.60;53.30;;;;;;5073984;28;20456;-78
2023/09/04 02:47:21;;;;;;;15.70;12.40;;;24.60;53.10;;;;;;5073813;28;20528;-79
2023/09/04 02:49:49;;;;;;;17.60;12.47;;;24.60;53.00;;;;;;5073564;28;20463;-78
2023/09/04 02:52:17;;;;;;;15.73;12.53;;;24.60;53.00;;;;;;5073843;28;20460;-79
2023/09/04 02:54:46;;;;;;;14.70;12.00;;;24.60;53.10;;;;;;5073757;28;20477;-79
2023/09/04 02:57:14;;;;;;;15.97;12.03;;;24.60;53.10;;;;;;5073418;28;20441;-79
2023/09/04 02:59:43;;;;;;;14.17;11.73;;;24.50;53.00;;;;;;5073784;28;20560;-79
2023/09/04 03:02:12;;;;;;;16.07;12.07;;;24.50;53.20;;;;;;5073827;28;20477;-78
2023/09/04 03:04:40;;;;;;;14.70;11.07;;;24.50;53.20;;;;;;5073667;28;20433;-79
2023/09/04 03:07:08;;;;;;;15.40;11.90;;;24.50;53.20;;;;;;5073566;28;20473;-79
2023/09/04 03:09:36;;;;;;;15.77;12.20;;;24.50;53.10;;;;;;5073624;28;20461;-79
2023/09/04 03:12:04;;;;;;;14.53;12.00;;;24.50;53.10;;;;;;5073457;28;20495;-79
2023/09/04 03:14:32;;;;;;;13.33;10.50;;;24.40;53.10;;;;;;5073748;28;20468;-79
2023/09/04 03:17:00;;;;;;;14.33;11.20;;;24.50;53.30;;;;;;5073702;28;20456;-80
2023/09/04 03:19:29;;;;;;;13.90;11.03;;;24.50;53.20;;;;;;5072743;28;20535;-79
2023/09/04 03:21:58;;;;;;;12.63;10.20;;;24.40;53.10;;;;;;5073492;28;20868;-78
2023/09/04 03:24:26;;;;;;;13.00;10.10;;;24.40;53.20;;;;;;5073181;28;20533;-79
2023/09/04 03:26:54;;;;;;;14.63;10.80;;;24.40;53.20;;;;;;5073623;28;20416;-79
2023/09/04 03:29:23;;;;;;;15.43;11.33;;;24.40;53.20;;;;;;5072914;28;20485;-78
2023/09/04 03:31:51;;;;;;;12.10;10.07;;;24.40;53.30;;;;;;5072921;28;20503;-77
2023/09/04 03:34:20;;;;;;;15.50;10.50;;;24.30;53.00;;;;;;5072739;28;20484;-79
2023/09/04 03:36:49;;;;;;;12.73;10.03;;;24.30;53.20;;;;;;5073127;28;20447;-78
2023/09/04 03:39:17;;;;;;;12.73;10.00;;;24.30;53.20;;;;;;5073148;28;20558;-77
2023/09/04 03:41:45;;;;;;;12.67;10.20;;;24.30;53.20;;;;;;5072964;28;20473;-77
2023/09/04 03:44:14;;;;;;;11.07;9.27;;;24.30;53.20;;;;;;5072975;28;20511;-78
2023/09/04 03:46:42;;;;;;;12.77;9.53;;;24.30;53.30;;;;;;5073729;28;20442;-76
2023/09/04 03:49:12;;;;;;;10.70;9.10;;;24.30;53.20;;;;;;5073065;28;20454;-78
2023/09/04 03:51:41;;;;;;;11.80;9.10;;;24.30;53.20;;;;;;5072635;28;20429;-78
2023/09/04 03:54:10;;;;;;;10.67;9.30;;;24.20;53.20;;;;;;5072867;28;20466;-78
2023/09/04 03:56:38;;;;;;;11.37;8.90;;;24.10;53.20;;;;;;5072714;28;20477;-78
2023/09/04 03:59:06;;;;;;;14.03;10.03;;;24.10;53.30;;;;;;5072078;28;20581;-78
2023/09/04 04:01:34;;;;;;;13.23;9.40;;;24.20;53.30;;;;;;5072186;28;20535;-80
2023/09/04 04:04:04;;;;;;;13.03;9.73;;;24.10;53.40;;;;;;5075405;28;20433;-79
2023/09/04 04:06:35;;;;;;;10.27;8.60;;;24.10;53.30;;;;;;5075558;28;20438;-80
2023/09/04 04:09:04;;;;;;;10.10;8.00;;;24.10;53.30;;;;;;5073001;28;20557;-77
2023/09/04 04:11:34;;;;;;;10.43;8.47;;;24.10;53.10;;;;;;5071878;28;20416;-76
2023/09/04 04:14:03;;;;;;;9.20;7.80;;;24.10;53.20;;;;;;5072471;28;20507;-79
2023/09/04 04:16:33;;;;;;;10.40;8.20;;;24.10;53.30;;;;;;5072268;28;20509;-78
2023/09/04 04:19:01;;;;;;;10.00;8.50;;;24.00;53.30;;;;;;5071777;28;20419;-78
2023/09/04 04:21:28;;;;;;;11.97;8.70;;;24.10;53.40;;;;;;5072202;28;20477;-78
2023/09/04 04:23:57;;;;;;;10.73;8.57;;;24.00;53.20;;;;;;5072232;28;20473;-78
2023/09/04 04:26:25;;;;;;;8.20;7.33;;;24.00;53.30;;;;;;5071893;28;20454;-78
2023/09/04 04:28:54;;;;;;;9.03;7.53;;;23.90;53.30;;;;;;5071692;28;20452;-78
2023/09/04 04:31:22;;;;;;;9.87;8.47;;;23.90;53.40;;;;;;5071633;28;20510;-78
2023/09/04 04:33:50;;;;;;;8.77;7.63;;;23.90;53.40;;;;;;5071240;28;20444;-79
2023/09/04 04:36:18;;;;;;;9.03;7.30;;;23.90;53.30;;;;;;5071702;28;20521;-78
2023/09/04 04:38:46;;;;;;;9.20;7.20;;;23.90;53.40;;;;;;5071171;28;21014;-78
2023/09/04 04:41:14;;;;;;;7.93;7.13;;;23.90;53.50;;;;;;5071950;28;20505;-78
2023/09/04 04:43:43;;;;;;;8.83;7.37;;;23.90;53.40;;;;;;5071325;28;20532;-78
2023/09/04 04:46:14;;;;;;;8.30;7.27;;;23.90;53.50;;;;;;5071576;28;20452;-78
2023/09/04 04:48:44;;;;;;;8.37;6.90;;;23.90;53.50;;;;;;5071579;28;20451;-78
2023/09/04 04:51:12;;;;;;;7.70;6.90;;;23.80;53.50;;;;;;5071218;28;20479;-78
2023/09/04 04:53:40;;;;;;;9.40;6.97;;;23.90;53.50;;;;;;5071303;28;20414;-79
2023/09/04 04:56:07;;;;;;;8.43;7.10;;;23.80;53.50;;;;;;5071559;28;20530;-79
2023/09/04 04:58:35;;;;;;;8.50;6.60;;;23.80;53.40;;;;;;5071527;28;20543;-79
2023/09/04 05:01:05;;;;;;;6.97;6.27;;;23.80;53.50;;;;;;5070631;28;20535;-79
2023/09/04 05:03:34;;;;;;;7.20;6.50;;;23.80;53.50;;;;;;5071341;28;20469;-79
2023/09/04 05:06:03;;;;;;;6.63;6.03;;;23.80;53.50;;;;;;5071646;28;20434;-79
2023/09/04 05:08:30;;;;;;;8.40;7.10;;;23.80;53.30;;;;;;5072039;28;20799;-79
2023/09/04 05:11:01;;;;;;;6.93;6.20;;;23.80;53.60;;;;;;5070340;28;20465;-78
2023/09/04 05:13:28;;;;;;;7.90;6.60;;;23.80;53.40;;;;;;5071320;28;20473;-79
2023/09/04 05:16:02;;;;;;;7.67;6.87;;;23.70;53.40;;;;;;5070998;28;20475;-78
2023/09/04 05:18:30;;;;;;;9.60;6.73;;;23.70;53.60;;;;;;5070757;28;20433;-78
2023/09/04 05:20:59;;;;;;;7.33;6.13;;;23.70;53.60;;;;;;5071113;28;20784;-79
2023/09/04 05:23:27;;;;;;;7.00;6.30;;;23.70;53.70;;;;;;5072329;28;20524;-79
2023/09/04 05:25:55;;;;;;;7.33;6.47;;;23.70;53.60;;;;;;5070639;28;20418;-77
2023/09/04 05:28:24;;;;;;;7.57;6.47;;;23.70;53.60;;;;;;5070687;28;20465;-79
2023/09/04 05:30:52;;;;;;;6.47;5.63;;;23.70;53.50;;;;;;5069485;28;20461;-79
2023/09/04 05:33:20;;;;;;;7.10;6.03;;;23.70;53.50;;;;;;5070586;28;20438;-78
2023/09/04 05:35:55;;;;;;;6.80;5.53;;;23.70;53.40;;;;;;5070780;28;20465;-78
2023/09/04 05:38:24;;;;;;;6.30;5.60;;;23.70;53.60;;;;;;5070545;28;20467;-78
2023/09/04 05:40:53;;;;;;;8.63;6.73;;;23.70;53.50;;;;;;5070544;28;20566;-79
2023/09/04 05:43:22;;;;;;;6.53;5.77;;;23.70;53.60;;;;;;5070880;28;20476;-79
2023/09/04 05:45:50;;;;;;;6.30;5.40;;;23.70;53.70;;;;;;5071544;28;20441;-79
2023/09/04 05:48:18;;;;;;;6.60;5.70;;;23.70;53.60;;;;;;5071430;28;20539;-79
2023/09/04 05:50:46;;;;;;;6.37;5.67;;;23.70;53.50;;;;;;5071497;28;20442;-78
2023/09/04 05:53:18;;;;;;;5.97;5.33;;;23.70;53.60;;;;;;5073747;28;20467;-78
2023/09/04 05:56:03;;;;;;;6.40;5.80;;;23.70;53.50;;;;;;5074962;28;20433;-78
2023/09/04 05:58:31;;;;;;;6.40;5.80;;;23.70;53.60;;;;;;5074491;28;20457;-80
2023/09/04 06:00:59;;;;;;;5.80;5.30;;;23.60;53.60;;;;;;5077314;28;20462;-79
2023/09/04 06:03:27;;;;;;;7.10;5.70;;;23.70;53.70;;;;;;5076363;28;20461;-79
2023/09/04 06:05:56;;;;;;;6.17;5.57;;;23.70;53.60;;;;;;5074770;28;20444;-78
2023/09/04 06:08:23;;;;;;;5.93;5.33;;;23.70;53.40;;;;;;5071549;28;21019;-78
2023/09/04 06:10:54;;;;;;;6.50;5.43;;;23.70;53.40;;;;;;5070309;28;20531;-76
2023/09/04 06:13:22;;;;;;;5.93;5.33;;;23.70;53.60;;;;;;5070570;28;20468;-75
2023/09/04 06:15:50;;;;;;;6.17;5.57;;;23.70;53.40;;;;;;5070680;28;20433;-78
2023/09/04 06:18:19;;;;;;;6.40;5.80;;;23.70;53.40;;;;;;5070342;28;20504;-78
2023/09/04 06:20:47;;;;;;;5.83;5.33;;;23.80;53.50;;;;;;5069693;28;20526;-78
2023/09/04 06:23:15;;;;;;;5.30;4.80;;;23.80;53.50;;;;;;5070005;28;20452;-78
2023/09/04 06:25:44;;;;;;;6.07;5.47;;;23.80;53.40;;;;;;5070520;28;20480;-78
2023/09/04 06:28:13;;;;;;;5.70;5.20;;;23.90;53.40;;;;;;5070244;28;20499;-78
2023/09/04 06:30:41;;;;;;;4.87;4.47;;;23.90;53.00;;;;;;5069890;28;20943;-78
2023/09/04 06:33:10;;;;;;;5.53;5.03;;;23.90;53.20;;;;;;5070453;28;20434;-77
2023/09/04 06:35:38;;;;;;;6.43;5.20;;;24.00;53.10;;;;;;5070351;28;20724;-77
2023/09/04 06:38:06;;;;;;;5.87;5.20;;;24.00;53.20;;;;;;5070064;28;20449;-77
2023/09/04 06:40:34;;;;;;;4.90;4.50;;;24.10;53.10;;;;;;5071570;28;20476;-75
2023/09/04 06:43:05;;;;;;;5.03;4.63;;;24.00;53.00;;;;;;5074738;28;20428;-77
2023/09/04 06:45:37;;;;;;;5.37;4.73;;;24.10;53.00;;;;;;5074984;28;20473;-78
2023/09/04 06:48:05;;;;;;;5.17;4.67;;;24.10;53.00;;;;;;5074737;28;20429;-75
2023/09/04 06:50:34;;;;;;;5.70;4.73;;;24.10;53.00;;;;;;5073861;28;20640;-78
2023/09/04 06:53:02;;;;;;;6.00;5.20;;;24.10;52.90;;;;;;5073566;28;20480;-78
2023/09/04 06:55:30;;;;;;;5.30;4.80;;;24.10;53.10;;;;;;5073731;28;20453;-78
2023/09/04 06:57:58;;;;;;;4.60;4.20;;;24.20;53.00;;;;;;5073745;28;20449;-78
2023/09/04 07:00:26;;;;;;;5.00;4.60;;;24.20;53.00;;;;;;5073158;28;20545;-78
2023/09/04 07:02:56;;;;;;;5.43;4.93;;;24.20;52.90;;;;;;5073508;28;20533;-78
2023/09/04 07:05:24;;;;;;;5.07;4.60;;;24.30;52.80;;;;;;5073430;28;20434;-77
2023/09/04 07:07:52;;;;;;;5.37;4.87;;;24.30;52.90;;;;;;5073226;28;20524;-78
2023/09/04 07:10:20;;;;;;;5.37;4.87;;;24.30;52.90;;;;;;5074033;28;20575;-79
2023/09/04 07:12:50;;;;;;;5.47;4.93;;;24.30;52.90;;;;;;5072966;28;20434;-78
2023/09/04 07:15:20;;;;;;;5.13;4.70;;;24.30;52.90;;;;;;5073390;28;20442;-77
2023/09/04 07:17:48;;;;;;;5.37;4.80;;;24.30;52.90;;;;;;5073194;28;20532;-77
2023/09/04 07:20:18;;;;;;;5.33;4.83;;;24.30;52.70;;;;;;5073076;28;20462;-78
2023/09/04 07:22:45;;;;;;;5.40;4.90;;;24.30;53.00;;;;;;5073136;28;20495;-77
2023/09/04 07:25:14;;;;;;;5.00;4.60;;;24.40;52.80;;;;;;5072806;28;20532;-78
2023/09/04 07:27:41;;;;;;;5.03;4.63;;;24.40;52.90;;;;;;5073110;28;20499;-78
2023/09/04 07:30:10;;;;;;;4.73;4.33;;;24.50;52.80;;;;;;5072893;28;20541;-76
2023/09/04 07:32:38;;;;;;;5.07;4.67;;;24.50;52.70;;;;;;5072834;28;20468;-77
2023/09/04 07:35:07;;;;;;;6.20;5.07;;;24.50;52.70;;;;;;5072798;28;20487;-79
2023/09/04 07:37:36;;;;;;;5.10;4.70;;;24.50;52.80;;;;;;5072626;28;21008;-77
2023/09/04 07:40:05;;;;;;;5.10;4.60;;;24.60;52.70;;;;;;5072886;28;20478;-77
2023/09/04 07:42:34;;;;;;;4.73;4.43;;;24.60;52.80;;;;;;5072401;28;20585;-77
2023/09/04 07:45:01;;;;;;;4.80;4.40;;;24.60;53.00;;;;;;5072812;28;20446;-77
2023/09/04 07:47:30;;;;;;;4.63;4.23;;;24.60;52.70;;;;;;5073021;28;20529;-78
2023/09/04 07:49:58;;;;;;;4.80;4.40;;;24.70;52.80;;;;;;5072106;28;21065;-76
2023/09/04 07:52:26;;;;;;;4.97;4.57;;;24.80;53.00;;;;;;5072265;28;20537;-77
2023/09/04 07:54:55;;;;;;;4.60;4.30;;;24.90;52.70;;;;;;5072748;28;20521;-75
2023/09/04 07:57:23;;;;;;;4.60;4.20;;;25.00;52.60;;;;;;5072884;28;20446;-77
2023/09/04 07:59:51;;;;;;;4.47;4.13;;;25.20;52.50;;;;;;5073086;28;20552;-77
2023/09/04 08:02:19;;;;;;;4.83;4.43;;;25.30;52.40;;;;;;5071881;28;20560;-78
2023/09/04 08:04:47;;;;;;;4.47;4.17;;;25.50;52.30;;;;;;5072737;28;20413;-76
2023/09/04 08:07:15;;;;;;;4.23;3.93;;;25.60;52.00;;;;;;5072499;28;20430;-77
2023/09/04 08:09:43;;;;;;;4.37;3.97;;;25.80;51.90;;;;;;5072099;28;20572;-77
2023/09/04 08:12:12;;;;;;;4.47;4.13;;;25.90;51.60;;;;;;5072050;28;20469;-77
2023/09/04 08:14:40;;;;;;;4.57;4.17;;;26.10;51.70;;;;;;5072145;28;20416;-78
2023/09/04 08:17:08;;;;;;;4.37;4.07;;;26.30;51.50;;;;;;5072234;28;20495;-77
2023/09/04 08:19:36;;;;;;;4.43;4.13;;;26.40;51.20;;;;;;5072251;28;20450;-77
2023/09/04 08:22:04;;;;;;;4.47;4.07;;;26.60;51.10;;;;;;5071617;28;20465;-77
2023/09/04 08:24:32;;;;;;;4.93;4.10;;;26.80;51.00;;;;;;5072265;28;20465;-77
2023/09/04 08:27:00;;;;;;;4.43;4.03;;;27.00;50.70;;;;;;5072024;28;20469;-77
2023/09/04 08:29:29;;;;;;;4.40;4.10;;;27.20;50.60;;;;;;5071876;28;20467;-74
2023/09/04 08:31:58;;;;;;;4.73;4.43;;;27.40;50.50;;;;;;5072136;28;20521;-78
2023/09/04 08:34:26;;;;;;;3.87;3.50;;;27.60;50.20;;;;;;5072115;28;20532;-77
2023/09/04 08:36:54;;;;;;;4.40;4.10;;;27.70;50.00;;;;;;5071786;28;20416;-77
2023/09/04 08:39:23;;;;;;;3.50;3.30;;;27.90;50.00;;;;;;5071609;28;20994;-78
2023/09/04 08:41:51;;;;;;;4.20;3.90;;;28.20;49.80;;;;;;5071713;28;20444;-77
2023/09/04 08:44:19;;;;;;;3.93;3.63;;;28.30;49.50;;;;;;5071879;28;20420;-76
2023/09/04 08:46:49;;;;;;;4.30;3.90;;;28.50;49.40;;;;;;5064982;28;20517;-77
2023/09/04 08:49:17;;;;;;;3.60;3.40;;;28.70;49.20;;;;;;5051782;28;20467;-77
2023/09/04 08:51:46;;;;;;;3.70;3.50;;;28.90;49.10;;;;;;5051545;28;20418;-76
2023/09/04 08:54:13;;;;;;;3.23;3.03;;;29.00;48.90;;;;;;5051600;28;20434;-77
2023/09/04 08:56:41;;;;;;;3.80;3.60;;;29.20;48.70;;;;;;5051567;28;21060;-78
2023/09/04 08:59:10;;;;;;;4.23;3.93;;;29.30;48.60;;;;;;5051839;28;20525;-77
2023/09/04 09:01:37;;;;;;;3.60;3.40;;;29.50;48.60;;;;;;5051249;28;20440;-77
2023/09/04 09:04:09;;;;;;;3.40;3.20;;;29.70;48.30;;;;;;5051174;28;20413;-76
2023/09/04 09:06:37;;;;;;;3.60;3.40;;;29.90;48.10;;;;;;5051509;28;20538;-75
2023/09/04 09:09:05;;;;;;;3.80;3.50;;;30.00;48.00;;;;;;5051008;28;20489;-78
2023/09/04 09:11:33;;;;;;;3.10;3.00;;;30.20;47.70;;;;;;5051272;28;20421;-78
2023/09/04 09:14:01;;;;;;;3.40;3.20;;;30.40;47.70;;;;;;5051015;28;20504;-78
2023/09/04 09:16:29;;;;;;;2.70;2.60;;;30.50;47.50;;;;;;5051014;28;20505;-78
2023/09/04 09:18:58;;;;;;;3.30;3.20;;;30.60;47.40;;;;;;5050727;28;20443;-79
2023/09/04 09:21:29;;;;;;;3.53;3.33;;;30.80;47.20;;;;;;5050903;28;20446;-79
2023/09/04 09:24:11;;;;;;;2.80;2.70;;;31.00;47.20;;;;;;5050822;28;20456;-78
2023/09/04 09:26:40;;;;;;;3.20;3.00;;;31.20;46.90;;;;;;5050583;28;20915;-79
2023/09/04 09:29:10;;;;;;;2.83;2.73;;;31.30;46.70;;;;;;5050808;28;21007;-78
2023/09/04 09:31:39;;;;;;;2.80;2.70;;;31.50;46.40;;;;;;5050544;28;20435;-77
2023/09/04 09:34:07;;;;;;;2.60;2.50;;;31.70;46.20;;;;;;5050796;28;20469;-78
2023/09/04 09:36:37;;;;;;;2.60;2.50;;;31.80;46.00;;;;;;5050666;28;20457;-78
2023/09/04 09:39:05;;;;;;;3.03;2.83;;;32.00;45.90;;;;;;5050602;28;20550;-79
2023/09/04 09:41:34;;;;;;;2.53;2.43;;;32.20;45.70;;;;;;5050496;28;21023;-79
2023/09/04 09:44:03;;;;;;;2.83;2.73;;;32.30;45.40;;;;;;5050310;28;20478;-79
2023/09/04 09:46:36;;;;;;;2.50;2.33;;;32.50;45.10;;;;;;5051837;28;20534;-77
2023/09/04 09:49:06;;;;;;;3.03;2.70;;;32.70;44.90;;;;;;5051211;28;20445;-79
2023/09/04 09:51:34;;;;;;;2.70;2.50;;;32.80;44.70;;;;;;5050161;28;20529;-78
2023/09/04 09:54:05;;;;;;;2.27;2.17;;;33.00;44.50;;;;;;5049790;28;20442;-79
2023/09/04 09:56:34;;;;;;;2.63;2.40;;;33.20;44.40;;;;;;5050500;28;20514;-79
2023/09/04 09:59:01;;;;;;;2.30;2.20;;;33.30;44.10;;;;;;5050225;28;20434;-79
2023/09/04 10:01:31;;;;;;;2.30;2.20;;;33.40;44.00;;;;;;5050726;28;20443;-79
2023/09/04 10:04:00;;;;;;;2.30;2.20;;;33.60;44.00;;;;;;5050118;28;20466;-78
2023/09/04 10:06:34;;;;;;;2.40;2.30;;;33.70;43.70;;;;;;5051141;28;20496;-79
2023/09/04 10:09:04;;;;;;;2.33;2.23;;;33.90;43.60;;;;;;5052976;28;20503;-76
2023/09/04 10:11:32;;;;;;;2.50;2.30;;;34.10;43.40;;;;;;5052607;28;20525;-79
2023/09/04 10:14:03;;;;;;;2.43;2.33;;;34.30;43.20;;;;;;5051675;28;20973;-78
2023/09/04 10:16:33;;;;;;;2.27;2.17;;;34.40;43.00;;;;;;5053095;28;20422;-78
2023/09/04 10:19:03;;;;;;;1.83;1.83;;;34.60;42.90;;;;;;5054591;28;20495;-78
2023/09/04 10:21:33;;;;;;;2.17;2.07;;;34.70;42.70;;;;;;5054476;28;20512;-78
2023/09/04 10:24:03;;;;;;;2.83;1.83;;;34.90;42.60;;;;;;5054188;28;20997;-77
2023/09/04 10:26:36;;;;;;;2.20;2.10;;;35.00;42.40;;;;;;5054763;28;20431;-77
2023/09/04 10:29:05;;;;;;;2.23;2.03;;;35.20;42.30;;;;;;5054524;28;20504;-77
2023/09/04 10:31:35;;;;;;;2.30;2.20;;;35.40;42.20;;;;;;5054361;28;20478;-78
2023/09/04 10:34:03;;;;;;;2.00;1.90;;;35.50;42.00;;;;;;5055142;28;20442;-78
2023/09/04 10:36:31;;;;;;;1.80;1.80;;;35.70;41.80;;;;;;5054727;28;20872;-79
2023/09/04 10:38:59;;;;;;;1.90;1.80;;;35.80;41.60;;;;;;5054081;28;20538;-79
2023/09/04 10:41:28;;;;;;;2.00;1.90;;;35.90;41.40;;;;;;5053356;28;20446;-80
2023/09/04 10:43:57;;;;;;;1.77;1.77;;;36.10;41.30;;;;;;5053193;28;20470;-79
2023/09/04 10:46:26;;;;;;;2.13;2.03;;;36.10;41.10;;;;;;5054376;28;20500;-79
2023/09/04 10:48:54;;;;;;;1.77;1.77;;;36.30;41.20;;;;;;5054938;28;20530;-80
2023/09/04 10:51:33;;;;;;;1.83;1.73;;;36.40;40.90;;;;;;5054576;28;20549;-80
2023/09/04 10:54:02;;;;;;;1.90;1.90;;;36.50;40.80;;;;;;5054108;28;20899;-77
2023/09/04 10:56:50;;;;;;;1.90;1.80;;;36.70;40.80;;;;;;5055060;28;20496;-80
2023/09/04 10:59:19;;;;;;;2.50;2.40;;;36.90;40.60;;;;;;5055120;28;20512;-81
2023/09/04 11:01:48;;;;;;;1.80;1.80;;;37.00;40.40;;;;;;5054597;28;20498;-79
2023/09/04 11:04:27;;;;;;;1.97;1.97;;;37.20;40.20;;;;;;5058380;28;20466;-80
2023/09/04 11:07:26;;;;;;;1.73;1.73;;;37.30;40.00;;;;;;5060027;28;20513;-80
2023/09/04 11:09:57;;;;;;;1.80;1.80;;;37.50;39.90;;;;;;5057769;28;20550;-80
2023/09/04 11:12:25;;;;;;;2.23;2.13;;;37.70;39.80;;;;;;5058931;28;20447;-80
2023/09/04 11:14:55;;;;;;;1.80;1.70;;;37.70;39.50;;;;;;5059864;28;20533;-80
2023/09/04 11:17:23;;;;;;;2.03;1.93;;;37.80;39.40;;;;;;5059823;28;20443;-80
2023/09/04 11:19:52;;;;;;;1.60;1.60;;;37.90;39.20;;;;;;5055190;28;20463;-80
2023/09/04 11:22:21;;;;;;;2.17;2.07;;;38.10;39.00;;;;;;5056923;28;20513;-80
2023/09/04 11:24:50;;;;;;;1.50;1.50;;;38.20;38.90;;;;;;5058205;28;20470;-80
2023/09/04 11:27:18;;;;;;;1.83;1.83;;;38.30;39.00;;;;;;5053477;28;20521;-80
2023/09/04 11:29:46;;;;;;;1.50;1.50;;;38.40;38.90;;;;;;5057078;28;20537;-79
2023/09/04 11:32:15;;;;;;;1.60;1.60;;;38.50;38.70;;;;;;5059042;28;20550;-80
2023/09/04 11:34:44;;;;;;;1.77;1.77;;;38.60;38.60;;;;;;5059519;28;20833;-80
2023/09/04 11:37:12;;;;;;;1.43;1.43;;;38.70;38.50;;;;;;5061914;28;20521;-80
2023/09/04 11:39:53;;;;;;;1.97;1.97;;;38.80;38.50;;;;;;5067703;28;20481;-80
2023/09/04 11:42:27;;;;;;;1.60;1.60;;;38.80;38.40;;;;;;5072111;28;20442;-79
2023/09/04 11:44:55;;;;;;;1.87;1.87;;;38.90;38.30;;;;;;5071201;28;20543;-81
2023/09/04 11:47:25;;;;;;;1.80;1.80;;;38.80;38.10;;;;;;5073441;28;20486;-82
2023/09/04 11:49:53;;;;;;;1.53;1.53;;;38.80;38.10;;;;;;5071678;28;20467;-82
2023/09/04 11:52:23;;;;;;;1.53;1.53;;;38.80;38.20;;;;;;5064544;28;20907;-79
2023/09/04 11:54:52;;;;;;;1.87;1.77;;;38.80;38.30;;;;;;5055151;28;20469;-79
2023/09/04 11:57:20;;;;;;;2.17;1.57;;;38.80;38.20;;;;;;5053605;28;20447;-80
2023/09/04 11:59:48;;;;;;;1.80;1.70;;;38.80;38.00;;;;;;5053144;28;20466;-78
2023/09/04 12:02:17;;;;;;;1.50;1.50;;;38.90;38.10;;;;;;5057173;28;20443;-80
2023/09/04 12:04:47;;;;;;;1.30;1.30;;;38.90;37.90;;;;;;5056688;28;20478;-80
2023/09/04 12:07:16;;;;;;;1.67;1.67;;;38.90;37.70;;;;;;5056787;28;20519;-80
2023/09/04 12:09:44;;;;;;;1.80;1.80;;;38.90;37.60;;;;;;5056528;28;20469;-79
2023/09/04 12:12:15;;;;;;;1.67;1.67;;;39.00;37.60;;;;;;5057353;28;20477;-80
2023/09/04 12:14:46;;;;;;;1.80;1.70;;;39.10;37.70;;;;;;5055107;28;20442;-81
2023/09/04 12:17:14;;;;;;;1.73;1.73;;;39.10;37.40;;;;;;5055018;28;20517;-80
2023/09/04 12:19:43;;;;;;;1.80;1.80;;;39.10;37.30;;;;;;5054322;28;20530;-78
2023/09/04 12:22:12;;;;;;;1.60;1.60;;;39.20;38.10;;;;;;5055191;28;20469;-78
2023/09/04 12:24:41;;;;;;;2.07;2.07;;;39.30;37.30;;;;;;5055047;28;20480;-82
2023/09/04 12:27:10;;;;;;;1.50;1.50;;;39.30;37.80;;;;;;5054710;28;20434;-79
2023/09/04 12:29:38;;;;;;;1.50;1.50;;;39.30;37.00;;;;;;5055233;28;20482;-80
2023/09/04 12:32:11;;;;;;;1.70;1.60;;;39.30;36.80;;;;;;5055324;28;20527;-80
2023/09/04 12:34:39;;;;;;;1.43;1.43;;;39.30;37.00;;;;;;5056554;28;20534;-80
2023/09/04 12:37:07;;;;;;;1.60;1.60;;;39.40;36.80;;;;;;5055620;28;20530;-77
2023/09/04 12:39:37;;;;;;;1.57;1.57;;;39.40;36.70;;;;;;5055249;28;20496;-79
2023/09/04 12:42:05;;;;;;;1.50;1.50;;;39.40;36.60;;;;;;5055301;28;20481;-79
2023/09/04 12:44:33;;;;;;;1.67;1.67;;;39.40;36.50;;;;;;5054412;28;20504;-79
2023/09/04 12:47:01;;;;;;;1.80;1.80;;;39.50;36.90;;;;;;5055293;28;20438;-80
2023/09/04 12:49:31;;;;;;;1.60;1.60;;;39.50;37.10;;;;;;5055170;28;20543;-80
2023/09/04 12:52:01;;;;;;;1.50;1.50;;;39.60;36.60;;;;;;5055419;28;20431;-78